sensor_id;sensor_type;location;lat;lon;timestamp;P1;durP1;ratioP1;P2;durP2;ratioP2
34836;SDS011;21053;50.848;4.652;2024-03-02T00:04:09;162.15;;;148.45;;
34836;SDS011;21053;50.848;4.652;2024-03-02T00:09:05;165.80;;;151.75;;
34836;SDS011;21053;50.848;4.652;2024-03-02T00:11:38;169.20;;;154.73;;
34836;SDS011;21053;50.848;4.652;2024-03-02T00:14:07;178.10;;;162.93;;
34836;SDS011;21053;50.848;4.652;2024-03-02T00:16:36;172.60;;;157.88;;
34836;SDS011;21053;50.848;4.652;2024-03-02T00:19:02;143.55;;;131.25;;
34836;SDS011;21053;50.848;4.652;2024-03-02T00:21:33;163.70;;;149.82;;
34836;SDS011;21053;50.848;4.652;2024-03-02T00:24:01;154.50;;;141.43;;
34836;SDS011;21053;50.848;4.652;2024-03-02T00:26:33;134.10;;;123.03;;
34836;SDS011;21053;50.848;4.652;2024-03-02T00:29:05;142.60;;;130.50;;
34836;SDS011;21053;50.848;4.652;2024-03-02T00:31:34;143.60;;;131.60;;
34836;SDS011;21053;50.848;4.652;2024-03-02T00:34:01;151.48;;;138.95;;
34836;SDS011;21053;50.848;4.652;2024-03-02T00:36:32;145.35;;;133.48;;
34836;SDS011;21053;50.848;4.652;2024-03-02T00:39:00;136.40;;;125.22;;
34836;SDS011;21053;50.848;4.652;2024-03-02T00:41:35;131.88;;;121.10;;
34836;SDS011;21053;50.848;4.652;2024-03-02T00:44:02;125.05;;;114.95;;
34836;SDS011;21053;50.848;4.652;2024-03-02T00:46:40;126.45;;;115.95;;
34836;SDS011;21053;50.848;4.652;2024-03-02T00:49:21;109.93;;;100.93;;
34836;SDS011;21053;50.848;4.652;2024-03-02T00:51:49;158.73;;;145.73;;
34836;SDS011;21053;50.848;4.652;2024-03-02T00:54:21;130.93;;;120.13;;
34836;SDS011;21053;50.848;4.652;2024-03-02T00:59:21;138.02;;;126.82;;
34836;SDS011;21053;50.848;4.652;2024-03-02T01:01:48;129.38;;;118.95;;
34836;SDS011;21053;50.848;4.652;2024-03-02T01:04:15;133.70;;;122.78;;
34836;SDS011;21053;50.848;4.652;2024-03-02T01:09:15;117.05;;;107.40;;
34836;SDS011;21053;50.848;4.652;2024-03-02T01:11:42;137.32;;;126.03;;
34836;SDS011;21053;50.848;4.652;2024-03-02T01:14:08;143.55;;;131.77;;
34836;SDS011;21053;50.848;4.652;2024-03-02T01:19:03;127.20;;;116.70;;
34836;SDS011;21053;50.848;4.652;2024-03-02T01:21:30;114.70;;;105.53;;
34836;SDS011;21053;50.848;4.652;2024-03-02T01:23:57;118.82;;;109.05;;
34836;SDS011;21053;50.848;4.652;2024-03-02T01:26:25;128.90;;;118.43;;
34836;SDS011;21053;50.848;4.652;2024-03-02T01:31:21;99.28;;;91.18;;
34836;SDS011;21053;50.848;4.652;2024-03-02T01:36:19;122.50;;;112.45;;
34836;SDS011;21053;50.848;4.652;2024-03-02T01:38:45;132.18;;;121.43;;
34836;SDS011;21053;50.848;4.652;2024-03-02T01:41:13;117.30;;;107.63;;
34836;SDS011;21053;50.848;4.652;2024-03-02T01:43:42;128.05;;;117.50;;
34836;SDS011;21053;50.848;4.652;2024-03-02T01:46:09;116.63;;;107.05;;
34836;SDS011;21053;50.848;4.652;2024-03-02T01:48:39;148.45;;;136.40;;
34836;SDS011;21053;50.848;4.652;2024-03-02T01:51:10;129.45;;;118.80;;
34836;SDS011;21053;50.848;4.652;2024-03-02T01:56:08;129.88;;;119.10;;
34836;SDS011;21053;50.848;4.652;2024-03-02T01:58:35;131.20;;;120.30;;
34836;SDS011;21053;50.848;4.652;2024-03-02T02:01:04;127.28;;;116.80;;
34836;SDS011;21053;50.848;4.652;2024-03-02T02:03:36;139.23;;;127.75;;
34836;SDS011;21053;50.848;4.652;2024-03-02T02:06:08;118.97;;;109.07;;
34836;SDS011;21053;50.848;4.652;2024-03-02T02:08:34;125.05;;;114.70;;
34836;SDS011;21053;50.848;4.652;2024-03-02T02:11:02;150.55;;;138.02;;
34836;SDS011;21053;50.848;4.652;2024-03-02T02:13:31;137.95;;;126.50;;
34836;SDS011;21053;50.848;4.652;2024-03-02T02:18:32;149.95;;;137.38;;
34836;SDS011;21053;50.848;4.652;2024-03-02T02:20:57;140.02;;;128.18;;
34836;SDS011;21053;50.848;4.652;2024-03-02T02:23:23;155.38;;;142.43;;
34836;SDS011;21053;50.848;4.652;2024-03-02T02:25:49;132.50;;;121.28;;
34836;SDS011;21053;50.848;4.652;2024-03-02T02:30:46;120.38;;;110.35;;
34836;SDS011;21053;50.848;4.652;2024-03-02T02:33:18;126.82;;;116.28;;
34836;SDS011;21053;50.848;4.652;2024-03-02T02:35:47;133.75;;;122.40;;
34836;SDS011;21053;50.848;4.652;2024-03-02T02:38:15;140.40;;;128.48;;
34836;SDS011;21053;50.848;4.652;2024-03-02T02:40:42;151.90;;;138.13;;
34836;SDS011;21053;50.848;4.652;2024-03-02T02:43:08;162.10;;;148.30;;
34836;SDS011;21053;50.848;4.652;2024-03-02T02:45:33;149.63;;;137.05;;
34836;SDS011;21053;50.848;4.652;2024-03-02T02:50:30;176.38;;;161.48;;
34836;SDS011;21053;50.848;4.652;2024-03-02T02:52:56;163.77;;;150.10;;
34836;SDS011;21053;50.848;4.652;2024-03-02T02:55:23;147.43;;;134.77;;
34836;SDS011;21053;50.848;4.652;2024-03-02T02:57:50;156.30;;;142.95;;
34836;SDS011;21053;50.848;4.652;2024-03-02T03:00:17;169.20;;;154.73;;
34836;SDS011;21053;50.848;4.652;2024-03-02T03:02:48;205.85;;;188.15;;
34836;SDS011;21053;50.848;4.652;2024-03-02T03:07:43;152.05;;;139.23;;
34836;SDS011;21053;50.848;4.652;2024-03-02T03:10:12;184.25;;;168.50;;
34836;SDS011;21053;50.848;4.652;2024-03-02T03:12:41;181.90;;;166.45;;
34836;SDS011;21053;50.848;4.652;2024-03-02T03:15:08;162.27;;;148.50;;
34836;SDS011;21053;50.848;4.652;2024-03-02T03:17:35;185.85;;;170.20;;
34836;SDS011;21053;50.848;4.652;2024-03-02T03:22:38;132.27;;;121.18;;
34836;SDS011;21053;50.848;4.652;2024-03-02T03:25:05;149.43;;;136.77;;
34836;SDS011;21053;50.848;4.652;2024-03-02T03:27:34;141.98;;;130.00;;
34836;SDS011;21053;50.848;4.652;2024-03-02T03:30:02;164.95;;;151.02;;
34836;SDS011;21053;50.848;4.652;2024-03-02T03:32:31;163.35;;;149.63;;
34836;SDS011;21053;50.848;4.652;2024-03-02T03:35:00;132.57;;;121.60;;
34836;SDS011;21053;50.848;4.652;2024-03-02T03:37:28;150.75;;;138.10;;
34836;SDS011;21053;50.848;4.652;2024-03-02T03:39:59;152.10;;;138.30;;
34836;SDS011;21053;50.848;4.652;2024-03-02T03:42:27;145.85;;;133.65;;
34836;SDS011;21053;50.848;4.652;2024-03-02T03:44:53;123.53;;;113.30;;
34836;SDS011;21053;50.848;4.652;2024-03-02T03:47:20;166.93;;;153.15;;
34836;SDS011;21053;50.848;4.652;2024-03-02T03:52:16;128.75;;;118.13;;
34836;SDS011;21053;50.848;4.652;2024-03-02T03:57:12;143.98;;;132.13;;
34836;SDS011;21053;50.848;4.652;2024-03-02T04:02:08;148.65;;;136.55;;
34836;SDS011;21053;50.848;4.652;2024-03-02T04:07:09;131.32;;;120.53;;
34836;SDS011;21053;50.848;4.652;2024-03-02T04:09:38;132.73;;;121.97;;
34836;SDS011;21053;50.848;4.652;2024-03-02T04:12:05;140.90;;;129.55;;
34836;SDS011;21053;50.848;4.652;2024-03-02T04:14:34;131.60;;;120.95;;
34836;SDS011;21053;50.848;4.652;2024-03-02T04:17:02;136.77;;;125.65;;
34836;SDS011;21053;50.848;4.652;2024-03-02T04:19:30;120.68;;;110.85;;
34836;SDS011;21053;50.848;4.652;2024-03-02T04:21:58;124.78;;;114.63;;
34836;SDS011;21053;50.848;4.652;2024-03-02T04:26:54;104.40;;;95.85;;
34836;SDS011;21053;50.848;4.652;2024-03-02T04:31:51;125.53;;;115.18;;
34836;SDS011;21053;50.848;4.652;2024-03-02T04:36:47;119.65;;;109.82;;
34836;SDS011;21053;50.848;4.652;2024-03-02T04:39:19;121.18;;;111.20;;
34836;SDS011;21053;50.848;4.652;2024-03-02T04:41:46;120.90;;;111.00;;
34836;SDS011;21053;50.848;4.652;2024-03-02T04:44:12;128.25;;;117.78;;
34836;SDS011;21053;50.848;4.652;2024-03-02T04:46:40;111.47;;;102.40;;
34836;SDS011;21053;50.848;4.652;2024-03-02T04:49:08;126.22;;;116.05;;
34836;SDS011;21053;50.848;4.652;2024-03-02T04:51:37;120.55;;;110.80;;
34836;SDS011;21053;50.848;4.652;2024-03-02T04:54:02;132.55;;;121.93;;
34836;SDS011;21053;50.848;4.652;2024-03-02T04:56:28;123.00;;;113.10;;
34836;SDS011;21053;50.848;4.652;2024-03-02T04:59:03;138.02;;;126.68;;
34836;SDS011;21053;50.848;4.652;2024-03-02T05:01:29;139.18;;;127.80;;
34836;SDS011;21053;50.848;4.652;2024-03-02T05:06:27;129.68;;;119.25;;
34836;SDS011;21053;50.848;4.652;2024-03-02T05:08:54;144.38;;;132.45;;
34836;SDS011;21053;50.848;4.652;2024-03-02T05:11:24;129.52;;;118.95;;
34836;SDS011;21053;50.848;4.652;2024-03-02T05:14:06;132.27;;;121.47;;
34836;SDS011;21053;50.848;4.652;2024-03-02T05:16:35;139.73;;;128.27;;
34836;SDS011;21053;50.848;4.652;2024-03-02T05:19:05;147.70;;;135.23;;
34836;SDS011;21053;50.848;4.652;2024-03-02T05:21:37;129.60;;;118.88;;
34836;SDS011;21053;50.848;4.652;2024-03-02T05:24:03;131.63;;;120.82;;
34836;SDS011;21053;50.848;4.652;2024-03-02T05:26:32;131.00;;;120.25;;
34836;SDS011;21053;50.848;4.652;2024-03-02T05:31:26;143.07;;;131.45;;
34836;SDS011;21053;50.848;4.652;2024-03-02T05:33:53;135.23;;;124.15;;
34836;SDS011;21053;50.848;4.652;2024-03-02T05:36:19;121.20;;;111.32;;
34836;SDS011;21053;50.848;4.652;2024-03-02T05:38:48;159.77;;;146.73;;
34836;SDS011;21053;50.848;4.652;2024-03-02T05:41:16;117.85;;;108.13;;
34836;SDS011;21053;50.848;4.652;2024-03-02T05:43:44;147.60;;;135.45;;
34836;SDS011;21053;50.848;4.652;2024-03-02T05:48:40;147.93;;;135.88;;
34836;SDS011;21053;50.848;4.652;2024-03-02T05:51:11;145.00;;;133.15;;
34836;SDS011;21053;50.848;4.652;2024-03-02T05:53:40;148.10;;;136.13;;
34836;SDS011;21053;50.848;4.652;2024-03-02T05:56:08;148.55;;;136.40;;
34836;SDS011;21053;50.848;4.652;2024-03-02T05:58:33;144.52;;;132.73;;
34836;SDS011;21053;50.848;4.652;2024-03-02T06:01:18;141.85;;;130.32;;
34836;SDS011;21053;50.848;4.652;2024-03-02T06:03:45;133.80;;;122.78;;
34836;SDS011;21053;50.848;4.652;2024-03-02T06:06:21;179.27;;;164.77;;
34836;SDS011;21053;50.848;4.652;2024-03-02T06:08:48;160.43;;;147.40;;
34836;SDS011;21053;50.848;4.652;2024-03-02T06:13:46;154.82;;;142.43;;
34836;SDS011;21053;50.848;4.652;2024-03-02T06:16:12;174.68;;;160.57;;
34836;SDS011;21053;50.848;4.652;2024-03-02T06:18:38;152.57;;;140.13;;
34836;SDS011;21053;50.848;4.652;2024-03-02T06:21:07;142.93;;;131.15;;
34836;SDS011;21053;50.848;4.652;2024-03-02T06:23:35;154.65;;;142.15;;
34836;SDS011;21053;50.848;4.652;2024-03-02T06:26:01;151.38;;;139.13;;
34836;SDS011;21053;50.848;4.652;2024-03-02T06:28:27;124.95;;;114.75;;
34836;SDS011;21053;50.848;4.652;2024-03-02T06:30:56;141.60;;;130.20;;
34836;SDS011;21053;50.848;4.652;2024-03-02T06:33:24;118.95;;;109.30;;
34836;SDS011;21053;50.848;4.652;2024-03-02T06:35:51;144.88;;;133.07;;
34836;SDS011;21053;50.848;4.652;2024-03-02T06:38:18;137.50;;;126.30;;
34836;SDS011;21053;50.848;4.652;2024-03-02T06:40:46;156.25;;;143.63;;
34836;SDS011;21053;50.848;4.652;2024-03-02T06:43:13;132.38;;;120.88;;
34836;SDS011;21053;50.848;4.652;2024-03-02T06:45:42;142.32;;;130.85;;
34836;SDS011;21053;50.848;4.652;2024-03-02T06:50:37;171.35;;;157.35;;
34836;SDS011;21053;50.848;4.652;2024-03-02T06:53:03;179.95;;;165.30;;
34836;SDS011;21053;50.848;4.652;2024-03-02T06:55:31;179.15;;;164.77;;
34836;SDS011;21053;50.848;4.652;2024-03-02T06:58:00;165.80;;;152.48;;
34836;SDS011;21053;50.848;4.652;2024-03-02T07:00:28;177.43;;;162.98;;
34836;SDS011;21053;50.848;4.652;2024-03-02T07:02:56;144.90;;;132.82;;
34836;SDS011;21053;50.848;4.652;2024-03-02T07:05:23;161.73;;;148.80;;
34836;SDS011;21053;50.848;4.652;2024-03-02T07:07:51;174.82;;;160.68;;
34836;SDS011;21053;50.848;4.652;2024-03-02T07:10:18;152.13;;;139.82;;
34836;SDS011;21053;50.848;4.652;2024-03-02T07:12:46;183.70;;;168.75;;
34836;SDS011;21053;50.848;4.652;2024-03-02T07:15:12;178.50;;;164.20;;
34836;SDS011;21053;50.848;4.652;2024-03-02T07:17:58;166.88;;;153.40;;
34836;SDS011;21053;50.848;4.652;2024-03-02T07:20:25;193.15;;;177.48;;
34836;SDS011;21053;50.848;4.652;2024-03-02T07:22:54;165.40;;;152.00;;
34836;SDS011;21053;50.848;4.652;2024-03-02T07:25:21;174.30;;;160.10;;
34836;SDS011;21053;50.848;4.652;2024-03-02T07:27:47;165.38;;;151.88;;
34836;SDS011;21053;50.848;4.652;2024-03-02T07:32:41;167.82;;;154.38;;
34836;SDS011;21053;50.848;4.652;2024-03-02T07:35:13;171.07;;;157.25;;
34836;SDS011;21053;50.848;4.652;2024-03-02T07:37:42;170.82;;;157.00;;
34836;SDS011;21053;50.848;4.652;2024-03-02T07:40:08;162.95;;;149.88;;
34836;SDS011;21053;50.848;4.652;2024-03-02T07:42:38;150.93;;;138.80;;
34836;SDS011;21053;50.848;4.652;2024-03-02T07:45:06;133.52;;;122.75;;
34836;SDS011;21053;50.848;4.652;2024-03-02T07:47:35;120.85;;;111.00;;
34836;SDS011;21053;50.848;4.652;2024-03-02T07:50:01;114.88;;;105.50;;
34836;SDS011;21053;50.848;4.652;2024-03-02T07:54:58;132.20;;;121.60;;
34836;SDS011;21053;50.848;4.652;2024-03-02T07:57:25;118.18;;;108.68;;
34836;SDS011;21053;50.848;4.652;2024-03-02T07:59:53;140.10;;;128.73;;
34836;SDS011;21053;50.848;4.652;2024-03-02T08:04:48;135.77;;;124.68;;
34836;SDS011;21053;50.848;4.652;2024-03-02T08:07:15;121.90;;;111.93;;
34836;SDS011;21053;50.848;4.652;2024-03-02T08:09:43;123.30;;;113.07;;
34836;SDS011;21053;50.848;4.652;2024-03-02T08:12:12;119.72;;;109.72;;
34836;SDS011;21053;50.848;4.652;2024-03-02T08:17:09;148.30;;;136.23;;
34836;SDS011;21053;50.848;4.652;2024-03-02T08:19:37;134.40;;;123.28;;
34836;SDS011;21053;50.848;4.652;2024-03-02T08:22:05;114.57;;;105.25;;
34836;SDS011;21053;50.848;4.652;2024-03-02T08:24:34;118.68;;;108.90;;
34836;SDS011;21053;50.848;4.652;2024-03-02T08:27:02;101.45;;;93.15;;
34836;SDS011;21053;50.848;4.652;2024-03-02T08:29:28;135.70;;;124.32;;
34836;SDS011;21053;50.848;4.652;2024-03-02T08:31:57;138.85;;;126.55;;
34836;SDS011;21053;50.848;4.652;2024-03-02T08:34:31;127.75;;;117.20;;
34836;SDS011;21053;50.848;4.652;2024-03-02T08:36:57;126.43;;;115.93;;
34836;SDS011;21053;50.848;4.652;2024-03-02T08:39:26;134.82;;;123.38;;
34836;SDS011;21053;50.848;4.652;2024-03-02T08:44:22;121.32;;;111.03;;
34836;SDS011;21053;50.848;4.652;2024-03-02T08:46:50;124.35;;;114.10;;
34836;SDS011;21053;50.848;4.652;2024-03-02T08:49:19;123.22;;;112.68;;
34836;SDS011;21053;50.848;4.652;2024-03-02T08:51:47;122.75;;;112.35;;
34836;SDS011;21053;50.848;4.652;2024-03-02T08:54:22;146.93;;;133.95;;
34836;SDS011;21053;50.848;4.652;2024-03-02T08:56:52;123.85;;;113.18;;
34836;SDS011;21053;50.848;4.652;2024-03-02T08:59:21;146.02;;;132.32;;
34836;SDS011;21053;50.848;4.652;2024-03-02T09:01:50;144.18;;;131.77;;
34836;SDS011;21053;50.848;4.652;2024-03-02T09:04:17;182.57;;;166.88;;
34836;SDS011;21053;50.848;4.652;2024-03-02T09:06:44;140.57;;;127.53;;
34836;SDS011;21053;50.848;4.652;2024-03-02T09:09:10;148.18;;;135.40;;
34836;SDS011;21053;50.848;4.652;2024-03-02T09:14:07;139.38;;;127.32;;
34836;SDS011;21053;50.848;4.652;2024-03-02T09:19:02;195.05;;;178.15;;
34836;SDS011;21053;50.848;4.652;2024-03-02T09:21:33;178.70;;;162.70;;
34836;SDS011;21053;50.848;4.652;2024-03-02T09:24:00;191.57;;;174.85;;
34836;SDS011;21053;50.848;4.652;2024-03-02T09:28:59;152.65;;;139.55;;
34836;SDS011;21053;50.848;4.652;2024-03-02T09:31:31;189.25;;;172.90;;
34836;SDS011;21053;50.848;4.652;2024-03-02T09:33:58;177.43;;;162.52;;
34836;SDS011;21053;50.848;4.652;2024-03-02T09:36:23;215.48;;;197.23;;
34836;SDS011;21053;50.848;4.652;2024-03-02T09:38:52;211.20;;;193.02;;
34836;SDS011;21053;50.848;4.652;2024-03-02T09:41:40;228.82;;;209.18;;
34836;SDS011;21053;50.848;4.652;2024-03-02T09:44:11;245.25;;;223.57;;
34836;SDS011;21053;50.848;4.652;2024-03-02T09:46:37;281.85;;;257.08;;
34836;SDS011;21053;50.848;4.652;2024-03-02T09:51:33;312.52;;;284.67;;
34836;SDS011;21053;50.848;4.652;2024-03-02T09:54:01;290.50;;;263.83;;
34836;SDS011;21053;50.848;4.652;2024-03-02T09:56:30;181.48;;;165.10;;
34836;SDS011;21053;50.848;4.652;2024-03-02T09:58:56;183.48;;;168.25;;
34836;SDS011;21053;50.848;4.652;2024-03-02T10:03:51;253.85;;;234.02;;
34836;SDS011;21053;50.848;4.652;2024-03-02T10:08:57;71.70;;;66.25;;
34836;SDS011;21053;50.848;4.652;2024-03-02T10:11:32;50.75;;;46.83;;
34836;SDS011;21053;50.848;4.652;2024-03-02T10:14:11;107.32;;;52.58;;
34836;SDS011;21053;50.848;4.652;2024-03-02T10:16:38;182.38;;;61.90;;
34836;SDS011;21053;50.848;4.652;2024-03-02T10:19:28;43.33;;;40.00;;
34836;SDS011;21053;50.848;4.652;2024-03-02T10:21:59;52.22;;;48.33;;
34836;SDS011;21053;50.848;4.652;2024-03-02T10:24:27;39.85;;;36.90;;
34836;SDS011;21053;50.848;4.652;2024-03-02T10:26:54;29.75;;;27.60;;
34836;SDS011;21053;50.848;4.652;2024-03-02T10:29:22;39.53;;;36.60;;
34836;SDS011;21053;50.848;4.652;2024-03-02T10:31:48;25.02;;;22.88;;
34836;SDS011;21053;50.848;4.652;2024-03-02T10:39:14;27.70;;;25.70;;
34836;SDS011;21053;50.848;4.652;2024-03-02T10:41:40;34.75;;;32.25;;
34836;SDS011;21053;50.848;4.652;2024-03-02T10:44:06;38.92;;;36.08;;
34836;SDS011;21053;50.848;4.652;2024-03-02T10:46:35;27.80;;;23.85;;
34836;SDS011;21053;50.848;4.652;2024-03-02T10:49:03;27.63;;;25.60;;
34836;SDS011;21053;50.848;4.652;2024-03-02T10:51:34;35.33;;;32.70;;
34836;SDS011;21053;50.848;4.652;2024-03-02T10:54:02;42.47;;;39.33;;
34836;SDS011;21053;50.848;4.652;2024-03-02T11:01:48;35.97;;;33.38;;
34836;SDS011;21053;50.848;4.652;2024-03-02T11:04:18;35.17;;;32.55;;
34836;SDS011;21053;50.848;4.652;2024-03-02T11:06:54;20.90;;;19.42;;
34836;SDS011;21053;50.848;4.652;2024-03-02T11:09:26;12.40;;;11.07;;
34836;SDS011;21053;50.848;4.652;2024-03-02T11:15:12;14.10;;;12.98;;
34836;SDS011;21053;50.848;4.652;2024-03-02T11:17:45;17.75;;;16.45;;
34836;SDS011;21053;50.848;4.652;2024-03-02T11:20:12;14.55;;;13.55;;
34836;SDS011;21053;50.848;4.652;2024-03-02T11:22:43;16.88;;;15.70;;
34836;SDS011;21053;50.848;4.652;2024-03-02T11:33:08;22.33;;;20.63;;
34836;SDS011;21053;50.848;4.652;2024-03-02T11:38:04;22.67;;;20.50;;
34836;SDS011;21053;50.848;4.652;2024-03-02T11:40:31;22.38;;;20.75;;
34836;SDS011;21053;50.848;4.652;2024-03-02T11:43:00;14.35;;;13.38;;
34836;SDS011;21053;50.848;4.652;2024-03-02T11:45:26;16.40;;;15.20;;
34836;SDS011;21053;50.848;4.652;2024-03-02T11:47:59;17.73;;;16.33;;
34836;SDS011;21053;50.848;4.652;2024-03-02T11:53:14;18.88;;;17.55;;
34836;SDS011;21053;50.848;4.652;2024-03-02T11:55:40;15.48;;;14.40;;
34836;SDS011;21053;50.848;4.652;2024-03-02T11:58:15;19.13;;;17.77;;
34836;SDS011;21053;50.848;4.652;2024-03-02T12:00:54;21.63;;;17.13;;
34836;SDS011;21053;50.848;4.652;2024-03-02T12:03:22;15.95;;;14.85;;
34836;SDS011;21053;50.848;4.652;2024-03-02T12:05:52;16.10;;;14.90;;
34836;SDS011;21053;50.848;4.652;2024-03-02T12:08:22;18.10;;;16.75;;
34836;SDS011;21053;50.848;4.652;2024-03-02T12:11:01;12.07;;;11.18;;
34836;SDS011;21053;50.848;4.652;2024-03-02T12:13:28;18.23;;;16.92;;
34836;SDS011;21053;50.848;4.652;2024-03-02T12:15:55;18.02;;;16.73;;
34836;SDS011;21053;50.848;4.652;2024-03-02T12:18:22;19.58;;;18.17;;
34836;SDS011;21053;50.848;4.652;2024-03-02T12:20:52;19.75;;;18.15;;
34836;SDS011;21053;50.848;4.652;2024-03-02T12:25:50;22.52;;;20.83;;
34836;SDS011;21053;50.848;4.652;2024-03-02T12:28:18;23.23;;;21.63;;
34836;SDS011;21053;50.848;4.652;2024-03-02T12:33:16;28.75;;;26.70;;
34836;SDS011;21053;50.848;4.652;2024-03-02T12:38:14;30.17;;;27.98;;
34836;SDS011;21053;50.848;4.652;2024-03-02T12:40:44;25.25;;;23.45;;
34836;SDS011;21053;50.848;4.652;2024-03-02T12:43:14;23.92;;;22.23;;
34836;SDS011;21053;50.848;4.652;2024-03-02T12:48:11;28.02;;;26.02;;
34836;SDS011;21053;50.848;4.652;2024-03-02T12:50:39;21.80;;;20.20;;
34836;SDS011;21053;50.848;4.652;2024-03-02T12:53:13;15.30;;;14.25;;
34836;SDS011;21053;50.848;4.652;2024-03-02T12:55:43;20.02;;;18.45;;
34836;SDS011;21053;50.848;4.652;2024-03-02T12:58:18;16.63;;;15.43;;
34836;SDS011;21053;50.848;4.652;2024-03-02T13:03:14;11.57;;;10.77;;
34836;SDS011;21053;50.848;4.652;2024-03-02T13:08:17;16.38;;;15.13;;
34836;SDS011;21053;50.848;4.652;2024-03-02T13:10:45;15.73;;;14.60;;
34836;SDS011;21053;50.848;4.652;2024-03-02T13:13:12;16.50;;;15.32;;
34836;SDS011;21053;50.848;4.652;2024-03-02T13:15:41;14.27;;;13.02;;
34836;SDS011;21053;50.848;4.652;2024-03-02T13:18:07;12.90;;;12.00;;
34836;SDS011;21053;50.848;4.652;2024-03-02T13:20:34;15.18;;;14.15;;
34836;SDS011;21053;50.848;4.652;2024-03-02T13:23:03;18.10;;;16.77;;
34836;SDS011;21053;50.848;4.652;2024-03-02T13:25:29;12.32;;;11.48;;
34836;SDS011;21053;50.848;4.652;2024-03-02T13:28:00;11.93;;;11.13;;
34836;SDS011;21053;50.848;4.652;2024-03-02T13:30:27;11.63;;;10.82;;
34836;SDS011;21053;50.848;4.652;2024-03-02T13:32:55;33.70;;;22.77;;
34836;SDS011;21053;50.848;4.652;2024-03-02T13:35:20;13.93;;;12.93;;
34836;SDS011;21053;50.848;4.652;2024-03-02T13:37:46;18.50;;;17.20;;
34836;SDS011;21053;50.848;4.652;2024-03-02T13:40:16;16.13;;;14.93;;
34836;SDS011;21053;50.848;4.652;2024-03-02T13:42:48;15.65;;;14.55;;
34836;SDS011;21053;50.848;4.652;2024-03-02T13:47:44;17.48;;;16.17;;
34836;SDS011;21053;50.848;4.652;2024-03-02T13:50:13;16.15;;;14.95;;
34836;SDS011;21053;50.848;4.652;2024-03-02T13:52:39;17.60;;;16.20;;
34836;SDS011;21053;50.848;4.652;2024-03-02T13:55:06;12.52;;;11.68;;
34836;SDS011;21053;50.848;4.652;2024-03-02T13:57:34;13.02;;;12.05;;
34836;SDS011;21053;50.848;4.652;2024-03-02T14:00:03;14.25;;;13.25;;
34836;SDS011;21053;50.848;4.652;2024-03-02T14:02:35;165.63;;;51.30;;
34836;SDS011;21053;50.848;4.652;2024-03-02T14:05:02;17.13;;;15.73;;
34836;SDS011;21053;50.848;4.652;2024-03-02T14:07:28;11.55;;;10.75;;
34836;SDS011;21053;50.848;4.652;2024-03-02T14:09:57;11.27;;;10.50;;
34836;SDS011;21053;50.848;4.652;2024-03-02T14:14:54;16.08;;;12.65;;
34836;SDS011;21053;50.848;4.652;2024-03-02T14:17:24;15.60;;;14.50;;
34836;SDS011;21053;50.848;4.652;2024-03-02T14:19:53;13.50;;;12.60;;
34836;SDS011;21053;50.848;4.652;2024-03-02T14:22:22;14.23;;;13.23;;
34836;SDS011;21053;50.848;4.652;2024-03-02T14:24:54;15.75;;;14.40;;
34836;SDS011;21053;50.848;4.652;2024-03-02T14:27:19;14.25;;;13.13;;
34836;SDS011;21053;50.848;4.652;2024-03-02T14:29:47;14.35;;;13.30;;
34836;SDS011;21053;50.848;4.652;2024-03-02T14:32:16;13.85;;;12.85;;
34836;SDS011;21053;50.848;4.652;2024-03-02T14:34:42;13.00;;;10.65;;
34836;SDS011;21053;50.848;4.652;2024-03-02T14:39:39;12.43;;;11.52;;
34836;SDS011;21053;50.848;4.652;2024-03-02T14:42:08;14.90;;;13.88;;
34836;SDS011;21053;50.848;4.652;2024-03-02T14:44:36;12.38;;;11.48;;
34836;SDS011;21053;50.848;4.652;2024-03-02T14:47:05;12.30;;;10.20;;
34836;SDS011;21053;50.848;4.652;2024-03-02T14:52:06;12.75;;;11.85;;
34836;SDS011;21053;50.848;4.652;2024-03-02T14:57:01;16.95;;;15.65;;
34836;SDS011;21053;50.848;4.652;2024-03-02T15:02:50;14.55;;;13.55;;
34836;SDS011;21053;50.848;4.652;2024-03-02T15:05:16;15.40;;;14.30;;
34836;SDS011;21053;50.848;4.652;2024-03-02T15:07:46;17.73;;;16.42;;
34836;SDS011;21053;50.848;4.652;2024-03-02T15:10:12;23.88;;;22.15;;
34836;SDS011;21053;50.848;4.652;2024-03-02T15:15:09;24.15;;;22.40;;
34836;SDS011;21053;50.848;4.652;2024-03-02T15:17:39;19.98;;;18.55;;
34836;SDS011;21053;50.848;4.652;2024-03-02T15:25:03;19.15;;;17.80;;
34836;SDS011;21053;50.848;4.652;2024-03-02T15:27:32;20.70;;;19.02;;
34836;SDS011;21053;50.848;4.652;2024-03-02T15:29:58;24.95;;;23.05;;
34836;SDS011;21053;50.848;4.652;2024-03-02T15:32:30;25.58;;;23.75;;
34836;SDS011;21053;50.848;4.652;2024-03-02T15:37:26;17.90;;;16.65;;
34836;SDS011;21053;50.848;4.652;2024-03-02T15:42:21;14.43;;;13.32;;
34836;SDS011;21053;50.848;4.652;2024-03-02T15:44:49;18.02;;;16.77;;
34836;SDS011;21053;50.848;4.652;2024-03-02T15:47:15;17.83;;;16.25;;
34836;SDS011;21053;50.848;4.652;2024-03-02T15:49:44;18.30;;;17.00;;
34836;SDS011;21053;50.848;4.652;2024-03-02T15:52:11;16.67;;;15.50;;
34836;SDS011;21053;50.848;4.652;2024-03-02T15:54:39;23.55;;;21.80;;
34836;SDS011;21053;50.848;4.652;2024-03-02T15:57:06;20.95;;;19.45;;
34836;SDS011;21053;50.848;4.652;2024-03-02T15:59:33;19.83;;;18.40;;
34836;SDS011;21053;50.848;4.652;2024-03-02T16:02:02;21.23;;;19.70;;
34836;SDS011;21053;50.848;4.652;2024-03-02T16:04:29;26.27;;;22.88;;
34836;SDS011;21053;50.848;4.652;2024-03-02T16:06:57;19.55;;;17.95;;
34836;SDS011;21053;50.848;4.652;2024-03-02T16:09:24;31.75;;;22.30;;
34836;SDS011;21053;50.848;4.652;2024-03-02T16:11:50;16.27;;;15.13;;
34836;SDS011;21053;50.848;4.652;2024-03-02T16:14:15;22.48;;;20.88;;
34836;SDS011;21053;50.848;4.652;2024-03-02T16:16:44;18.33;;;16.88;;
34836;SDS011;21053;50.848;4.652;2024-03-02T16:19:13;19.85;;;18.30;;
34836;SDS011;21053;50.848;4.652;2024-03-02T16:21:39;22.98;;;21.25;;
34836;SDS011;21053;50.848;4.652;2024-03-02T16:24:08;21.70;;;20.10;;
34836;SDS011;21053;50.848;4.652;2024-03-02T16:29:03;28.35;;;26.27;;
34836;SDS011;21053;50.848;4.652;2024-03-02T16:34:12;40.70;;;37.28;;
34836;SDS011;21053;50.848;4.652;2024-03-02T16:36:38;38.92;;;36.03;;
34836;SDS011;21053;50.848;4.652;2024-03-02T16:41:34;47.38;;;43.83;;
34836;SDS011;21053;50.848;4.652;2024-03-02T16:43:59;47.78;;;44.25;;
34836;SDS011;21053;50.848;4.652;2024-03-02T16:46:31;47.65;;;43.90;;
34836;SDS011;21053;50.848;4.652;2024-03-02T16:51:26;53.47;;;49.35;;
34836;SDS011;21053;50.848;4.652;2024-03-02T16:53:55;50.53;;;46.70;;
34836;SDS011;21053;50.848;4.652;2024-03-02T16:56:24;53.17;;;49.22;;
34836;SDS011;21053;50.848;4.652;2024-03-02T16:58:52;55.63;;;51.50;;
34836;SDS011;21053;50.848;4.652;2024-03-02T17:01:17;54.45;;;50.30;;
34836;SDS011;21053;50.848;4.652;2024-03-02T17:03:46;60.55;;;55.95;;